Time;durP1;ratioP1;P1;durP2;ratioP2;P2;SDS_P1;SDS_P2;PMS_P1;PMS_P2;Temp;Humidity;BMP_temperature;BMP_pressure;BME280_temperature;BME280_humidity;BME280_pressure;Samples;Min_cycle;Max_cycle;Signal;HPM_P1;HPM_P2
2022/07/26 00:00:05;;;;;;;2.33;0.95;;;23.00;49.10;;;;;;5032549;28;20053;-51
2022/07/26 00:02:32;;;;;;;2.40;0.80;;;22.90;49.10;;;;;;5021720;28;20461;-46
2022/07/26 00:05:01;;;;;;;1.48;0.70;;;22.80;49.10;;;;;;5013690;28;20104;-46
2022/07/26 00:07:28;;;;;;;3.58;0.80;;;22.80;49.30;;;;;;5025187;28;20601;-44
2022/07/26 00:10:04;;;;;;;1.42;0.52;;;22.80;49.40;;;;;;5019933;28;20046;-46
2022/07/26 00:12:32;;;;;;;3.05;0.90;;;22.80;49.60;;;;;;5008479;28;20045;-45
2022/07/26 00:15:04;;;;;;;2.88;0.80;;;22.70;49.50;;;;;;5031118;28;20045;-46
2022/07/26 00:17:32;;;;;;;1.52;0.50;;;22.70;49.70;;;;;;5022153;28;20528;-46
2022/07/26 00:20:02;;;;;;;5.00;1.02;;;22.70;49.80;;;;;;5011189;28;20046;-48
2022/07/26 00:22:38;;;;;;;3.45;0.75;;;22.60;50.00;;;;;;5016894;28;20425;-46
2022/07/26 00:25:07;;;;;;;1.77;0.82;;;22.60;50.10;;;;;;5027656;28;20037;-46
2022/07/26 00:27:36;;;;;;;2.28;0.80;;;22.60;50.30;;;;;;5023173;28;20497;-49
2022/07/26 00:30:09;;;;;;;3.10;0.95;;;22.70;50.10;;;;;;5029399;28;20121;-50
2022/07/26 00:32:42;;;;;;;1.00;0.80;;;22.60;51.10;;;;;;5023552;28;20065;-48
2022/07/26 00:35:10;;;;;;;2.45;0.85;;;22.50;50.30;;;;;;5023495;28;20049;-47
2022/07/26 00:37:38;;;;;;;2.40;1.08;;;22.50;50.20;;;;;;5031706;28;20041;-48
2022/07/26 00:40:09;;;;;;;1.92;1.35;;;22.50;50.40;;;;;;5022489;28;20050;-46
2022/07/26 00:42:36;;;;;;;2.67;1.05;;;22.50;50.40;;;;;;5031394;28;20037;-48
2022/07/26 00:45:05;;;;;;;4.00;1.17;;;22.40;50.50;;;;;;5022903;28;20103;-45
2022/07/26 00:47:32;;;;;;;2.55;0.70;;;22.40;50.70;;;;;;5025929;28;20088;-46
2022/07/26 00:50:09;;;;;;;1.55;0.52;;;22.40;50.80;;;;;;5017833;28;20076;-45
2022/07/26 00:52:40;;;;;;;4.35;0.90;;;22.30;51.40;;;;;;5024734;28;20129;-47
2022/07/26 00:55:09;;;;;;;3.28;1.15;;;22.30;51.00;;;;;;5029934;28;20544;-49
2022/07/26 00:57:38;;;;;;;3.97;0.80;;;22.30;51.20;;;;;;5022474;28;20046;-45
2022/07/26 01:00:18;;;;;;;2.20;0.90;;;22.20;51.30;;;;;;5029579;28;20520;-47
2022/07/26 01:02:47;;;;;;;1.98;0.85;;;22.20;51.70;;;;;;5022660;28;20037;-46
2022/07/26 01:05:15;;;;;;;4.22;1.35;;;22.20;51.50;;;;;;5031070;28;20091;-47
2022/07/26 01:07:45;;;;;;;1.40;0.77;;;22.20;51.80;;;;;;5017557;28;20057;-45
2022/07/26 01:10:12;;;;;;;2.08;0.70;;;22.20;51.80;;;;;;5025173;28;20509;-46
2022/07/26 01:12:41;;;;;;;3.30;0.93;;;22.10;51.90;;;;;;5022505;28;20046;-47
2022/07/26 01:15:12;;;;;;;2.25;0.73;;;22.10;51.90;;;;;;5031136;28;20443;-50
2022/07/26 01:17:40;;;;;;;2.40;0.80;;;22.10;52.10;;;;;;5019691;28;20042;-50
2022/07/26 01:20:09;;;;;;;1.35;0.63;;;22.10;52.20;;;;;;5029017;28;20564;-49
2022/07/26 01:22:36;;;;;;;3.47;0.93;;;22.10;52.40;;;;;;5018509;28;20076;-47
2022/07/26 01:25:04;;;;;;;4.45;0.82;;;22.10;52.50;;;;;;5026274;28;20080;-46
2022/07/26 01:27:39;;;;;;;0.82;0.60;;;22.10;52.70;;;;;;5018097;28;20390;-45
2022/07/26 01:30:10;;;;;;;3.75;1.05;;;22.10;52.60;;;;;;5029310;28;20041;-44
2022/07/26 01:32:42;;;;;;;2.42;0.90;;;22.20;52.70;;;;;;5025062;28;20045;-45
2022/07/26 01:35:09;;;;;;;3.60;0.80;;;22.20;52.40;;;;;;5030821;28;20060;-45
2022/07/26 01:37:36;;;;;;;2.00;1.02;;;22.20;52.50;;;;;;5019053;28;20068;-50
2022/07/26 01:40:03;;;;;;;2.78;0.90;;;22.20;52.50;;;;;;5029120;28;20054;-48
2022/07/26 01:42:32;;;;;;;5.60;1.50;;;22.20;52.40;;;;;;5024153;28;20069;-45
2022/07/26 01:44:59;;;;;;;3.78;0.85;;;22.20;52.30;;;;;;5028531;28;20053;-46
2022/07/26 01:47:26;;;;;;;2.35;0.88;;;22.20;52.30;;;;;;5015845;28;20046;-46
2022/07/26 01:49:55;;;;;;;4.05;0.85;;;22.20;52.30;;;;;;5022210;28;20040;-45
2022/07/26 01:52:25;;;;;;;3.72;0.88;;;22.20;52.40;;;;;;5029842;28;20049;-47
2022/07/26 01:54:52;;;;;;;3.70;1.63;;;22.20;52.50;;;;;;5018744;28;20045;-46
2022/07/26 01:57:22;;;;;;;2.35;1.10;;;22.20;52.60;;;;;;5022811;28;20045;-45
2022/07/26 01:59:49;;;;;;;6.50;1.40;;;22.20;52.60;;;;;;5026577;28;20084;-47
2022/07/26 02:02:18;;;;;;;3.42;1.13;;;22.20;52.70;;;;;;5016822;28;20041;-46
2022/07/26 02:05:00;;;;;;;4.15;0.93;;;22.10;52.70;;;;;;5025856;28;20125;-49
2022/07/26 02:07:31;;;;;;;4.13;1.08;;;22.10;52.70;;;;;;5017723;28;20402;-46
2022/07/26 02:09:59;;;;;;;2.85;1.00;;;22.10;53.00;;;;;;5031790;28;20041;-47
2022/07/26 02:12:33;;;;;;;3.15;0.82;;;22.00;52.90;;;;;;5034117;28;20049;-47
2022/07/26 02:15:04;;;;;;;5.53;1.38;;;22.00;53.40;;;;;;5025677;28;20045;-48
2022/07/26 02:17:34;;;;;;;4.18;1.13;;;21.90;53.20;;;;;;5021936;28;20422;-47
2022/07/26 02:20:01;;;;;;;2.85;1.15;;;21.90;53.20;;;;;;5014668;28;20053;-44
2022/07/26 02:22:28;;;;;;;2.67;1.05;;;21.90;53.40;;;;;;5009547;28;20061;-44
2022/07/26 02:24:57;;;;;;;4.05;1.10;;;21.80;53.60;;;;;;5025496;28;20579;-47
2022/07/26 02:27:30;;;;;;;5.65;1.30;;;21.80;54.00;;;;;;5025461;28;20120;-47
2022/07/26 02:29:59;;;;;;;3.25;0.95;;;21.80;53.90;;;;;;5034499;28;20107;-46
2022/07/26 02:32:28;;;;;;;3.60;0.82;;;21.80;54.60;;;;;;5027861;28;20538;-45
2022/07/26 02:34:55;;;;;;;2.63;1.00;;;21.80;54.00;;;;;;5029849;28;20049;-47
2022/07/26 02:37:24;;;;;;;2.42;1.10;;;21.80;54.10;;;;;;5025411;28;20041;-46
2022/07/26 02:39:51;;;;;;;2.47;1.23;;;21.80;54.00;;;;;;5033988;28;20468;-45
2022/07/26 02:42:17;;;;;;;2.45;1.05;;;21.80;54.10;;;;;;5023275;28;20042;-45
2022/07/26 02:44:45;;;;;;;3.67;1.38;;;21.80;54.10;;;;;;5033606;28;20038;-47
2022/07/26 02:47:12;;;;;;;2.50;1.50;;;21.70;54.30;;;;;;5025316;28;20042;-46
2022/07/26 02:49:39;;;;;;;4.90;1.50;;;21.80;54.40;;;;;;5033540;28;20049;-46
2022/07/26 02:52:06;;;;;;;6.05;1.08;;;21.70;54.50;;;;;;5018695;28;20050;-45
2022/07/26 02:54:35;;;;;;;3.75;1.25;;;21.70;54.50;;;;;;5032523;28;20578;-45
2022/07/26 02:57:04;;;;;;;5.20;1.27;;;21.70;54.70;;;;;;5024816;28;20045;-46
2022/07/26 02:59:33;;;;;;;4.32;1.30;;;21.60;54.80;;;;;;5025590;28;20042;-47
2022/07/26 03:02:00;;;;;;;4.00;1.60;;;21.60;55.00;;;;;;5015657;28;20041;-45
2022/07/26 03:04:29;;;;;;;3.05;1.13;;;21.60;55.00;;;;;;5014983;28;20042;-50
2022/07/26 03:06:56;;;;;;;4.60;1.55;;;21.60;55.10;;;;;;5029897;28;20402;-47
2022/07/26 03:09:24;;;;;;;4.38;0.98;;;21.60;55.10;;;;;;5025723;28;20048;-46
2022/07/26 03:11:58;;;;;;;3.72;1.67;;;21.60;55.20;;;;;;5030230;28;20034;-45
2022/07/26 03:14:25;;;;;;;2.55;0.93;;;21.60;55.20;;;;;;5024083;28;20433;-45
2022/07/26 03:16:54;;;;;;;2.78;1.27;;;21.60;55.30;;;;;;5033209;28;20112;-46
2022/07/26 03:19:22;;;;;;;3.25;1.27;;;21.60;55.30;;;;;;5010475;28;20124;-48
2022/07/26 03:21:53;;;;;;;6.40;1.67;;;21.70;55.40;;;;;;5026485;28;20465;-44
2022/07/26 03:24:28;;;;;;;3.28;1.63;;;21.60;55.60;;;;;;5018990;28;20037;-44
2022/07/26 03:26:57;;;;;;;4.72;1.35;;;21.60;55.90;;;;;;5024369;28;20038;-45
2022/07/26 03:29:24;;;;;;;4.68;1.30;;;21.60;55.50;;;;;;5033476;28;20041;-44
2022/07/26 03:31:50;;;;;;;3.95;1.38;;;21.60;55.60;;;;;;5018920;28;20041;-47
2022/07/26 03:34:18;;;;;;;4.07;1.35;;;21.60;55.70;;;;;;5024550;28;20079;-48
2022/07/26 03:36:47;;;;;;;3.78;1.20;;;21.60;55.80;;;;;;5032731;28;20057;-45
2022/07/26 03:39:16;;;;;;;3.92;1.10;;;21.60;55.90;;;;;;5022017;28;20052;-45
2022/07/26 03:41:43;;;;;;;5.65;1.95;;;21.50;55.90;;;;;;5025799;28;20044;-44
2022/07/26 03:44:12;;;;;;;5.20;1.80;;;21.50;56.00;;;;;;5031608;28;20498;-45
2022/07/26 03:46:40;;;;;;;5.63;1.77;;;21.50;56.00;;;;;;5032701;28;20065;-46
2022/07/26 03:49:07;;;;;;;4.45;1.42;;;21.50;56.20;;;;;;5020615;28;20041;-46
2022/07/26 03:51:42;;;;;;;3.90;1.70;;;21.50;56.30;;;;;;5015257;28;20410;-44
2022/07/26 03:54:13;;;;;;;6.00;1.20;;;21.50;56.40;;;;;;5031127;28;20042;-46
2022/07/26 03:56:42;;;;;;;2.83;1.52;;;21.50;56.70;;;;;;5014259;28;20038;-44
2022/07/26 03:59:11;;;;;;;5.20;1.50;;;21.50;56.50;;;;;;5030036;28;20103;-46
2022/07/26 04:01:41;;;;;;;4.75;1.40;;;21.50;56.60;;;;;;5024078;28;20045;-44
2022/07/26 04:04:09;;;;;;;5.30;1.30;;;21.40;56.70;;;;;;5032661;28;20044;-46
2022/07/26 04:06:42;;;;;;;5.40;2.17;;;21.40;56.70;;;;;;5023621;28;20044;-44
2022/07/26 04:09:10;;;;;;;8.23;1.92;;;21.50;57.00;;;;;;5023642;28;20049;-46
2022/07/26 04:11:38;;;;;;;5.60;0.98;;;21.40;56.80;;;;;;5032362;28;20037;-45
2022/07/26 04:14:09;;;;;;;2.03;1.15;;;21.40;56.90;;;;;;5019103;28;20120;-46
2022/07/26 04:16:36;;;;;;;4.53;2.05;;;21.40;57.10;;;;;;5020326;28;20038;-47
2022/07/26 04:19:09;;;;;;;3.63;1.55;;;21.40;57.20;;;;;;5020281;28;20121;-47
2022/07/26 04:21:36;;;;;;;5.75;1.33;;;21.40;57.20;;;;;;5011103;28;20045;-46
2022/07/26 04:24:02;;;;;;;5.45;1.38;;;21.40;57.30;;;;;;5015050;28;20073;-49
2022/07/26 04:26:29;;;;;;;2.97;1.23;;;21.40;57.40;;;;;;5015513;28;20094;-47
2022/07/26 04:28:56;;;;;;;3.80;1.38;;;21.40;57.50;;;;;;5008958;28;20061;-45
2022/07/26 04:31:23;;;;;;;4.85;1.30;;;21.40;57.60;;;;;;5008840;28;20084;-46
2022/07/26 04:33:51;;;;;;;5.15;1.30;;;21.40;57.60;;;;;;5011862;28;20128;-46
2022/07/26 04:36:17;;;;;;;7.43;1.92;;;21.40;57.60;;;;;;5017013;28;20033;-45
2022/07/26 04:38:44;;;;;;;4.93;2.20;;;21.40;57.70;;;;;;5013445;28;20042;-46
2022/07/26 04:41:11;;;;;;;6.38;2.00;;;21.40;57.80;;;;;;5010906;28;20120;-46
2022/07/26 04:43:38;;;;;;;3.00;1.02;;;21.40;57.90;;;;;;5012799;28;20080;-47
2022/07/26 04:46:05;;;;;;;4.65;1.80;;;21.40;57.90;;;;;;5020544;28;20037;-44
2022/07/26 04:48:31;;;;;;;4.90;1.00;;;21.40;58.60;;;;;;5010911;28;20065;-44
2022/07/26 04:51:00;;;;;;;4.38;1.45;;;21.40;58.00;;;;;;5017262;28;20061;-47
2022/07/26 04:53:27;;;;;;;6.05;1.55;;;21.40;58.10;;;;;;5010025;28;20458;-46
2022/07/26 04:55:53;;;;;;;4.03;1.50;;;21.40;58.10;;;;;;5023541;28;20506;-49
2022/07/26 04:58:20;;;;;;;3.15;1.20;;;21.40;58.10;;;;;;5023097;28;20045;-45
2022/07/26 05:00:47;;;;;;;7.40;1.45;;;21.40;58.10;;;;;;5029911;28;20045;-45
2022/07/26 05:03:33;;;;;;;5.82;1.58;;;21.40;58.10;;;;;;5020681;28;20516;-46
2022/07/26 05:06:00;;;;;;;5.20;1.48;;;21.40;58.00;;;;;;5022145;28;20644;-48
2022/07/26 05:08:27;;;;;;;7.22;1.92;;;21.40;58.10;;;;;;5030591;28;20110;-46
2022/07/26 05:10:54;;;;;;;5.88;2.35;;;21.50;58.20;;;;;;5030916;28;20096;-50
2022/07/26 05:13:21;;;;;;;2.47;0.93;;;21.50;58.30;;;;;;5020008;28;20038;-48
2022/07/26 05:15:58;;;;;;;3.63;1.70;;;21.50;58.30;;;;;;5020062;28;20045;-45
2022/07/26 05:18:25;;;;;;;6.75;1.90;;;21.50;58.30;;;;;;5008764;28;20569;-45
2022/07/26 05:20:52;;;;;;;5.22;1.88;;;21.50;58.30;;;;;;5009008;28;20049;-44
2022/07/26 05:23:19;;;;;;;5.03;1.40;;;21.50;58.30;;;;;;5005635;28;20095;-46
2022/07/26 05:25:46;;;;;;;6.25;1.42;;;21.50;58.50;;;;;;5026628;28;20111;-46
2022/07/26 05:28:15;;;;;;;4.45;2.22;;;21.50;58.50;;;;;;5017160;28;20096;-45
2022/07/26 05:30:42;;;;;;;4.93;1.42;;;21.50;58.60;;;;;;5003686;28;20049;-48
2022/07/26 05:33:11;;;;;;;5.90;1.73;;;21.50;58.60;;;;;;5010627;28;20049;-46
2022/07/26 05:35:42;;;;;;;3.38;1.70;;;21.50;58.70;;;;;;5012152;28;20046;-48
2022/07/26 05:38:09;;;;;;;3.70;1.35;;;21.50;58.80;;;;;;5007602;28;20119;-45
2022/07/26 05:40:36;;;;;;;4.57;1.60;;;21.50;58.90;;;;;;5007972;28;20100;-46
2022/07/26 05:43:03;;;;;;;6.18;2.28;;;21.50;58.90;;;;;;5011753;28;20065;-48
2022/07/26 05:45:33;;;;;;;7.00;1.90;;;21.50;58.90;;;;;;5008115;28;20096;-46
2022/07/26 05:47:59;;;;;;;4.45;1.48;;;21.50;58.90;;;;;;5015373;28;20055;-46
2022/07/26 05:50:27;;;;;;;4.35;1.50;;;21.50;59.00;;;;;;5014034;28;20041;-47
2022/07/26 05:52:54;;;;;;;4.78;2.10;;;21.50;59.00;;;;;;5020131;28;20050;-49
2022/07/26 05:55:21;;;;;;;10.13;4.55;;;21.60;59.10;;;;;;5028376;28;20037;-48
2022/07/26 05:57:48;;;;;;;5.55;1.70;;;21.60;59.20;;;;;;5012369;28;20041;-45
2022/07/26 06:00:15;;;;;;;4.15;1.55;;;21.60;59.30;;;;;;5011387;28;20044;-47
2022/07/26 06:02:45;;;;;;;3.83;1.92;;;21.60;59.30;;;;;;5015836;28;20081;-48
2022/07/26 06:05:14;;;;;;;6.15;1.83;;;21.60;59.50;;;;;;5026267;28;20045;-43
2022/07/26 06:07:41;;;;;;;4.78;1.73;;;21.60;59.40;;;;;;5010207;28;20095;-44
2022/07/26 06:10:08;;;;;;;4.60;2.05;;;21.60;59.50;;;;;;5023830;28;20088;-45
2022/07/26 06:12:35;;;;;;;5.00;1.98;;;21.70;59.60;;;;;;5021983;28;20053;-45
2022/07/26 06:15:02;;;;;;;6.32;2.30;;;21.70;59.60;;;;;;5028043;28;20116;-45
2022/07/26 06:17:40;;;;;;;7.00;1.88;;;21.80;59.50;;;;;;5006736;28;20041;-50
2022/07/26 06:20:08;;;;;;;10.88;3.78;;;21.80;59.30;;;;;;5019760;28;20482;-47
2022/07/26 06:22:34;;;;;;;5.30;2.97;;;21.90;59.40;;;;;;5021632;28;20084;-45
2022/07/26 06:25:01;;;;;;;5.18;1.73;;;21.90;59.40;;;;;;5023762;28;20038;-48
2022/07/26 06:27:31;;;;;;;6.10;2.35;;;21.90;59.40;;;;;;5017309;28;20095;-47
2022/07/26 06:29:57;;;;;;;5.45;1.80;;;21.90;59.50;;;;;;5027747;28;20038;-47
2022/07/26 06:32:24;;;;;;;7.05;1.98;;;22.00;59.40;;;;;;5019576;28;20065;-46
2022/07/26 06:34:51;;;;;;;7.07;3.70;;;22.00;59.50;;;;;;5007644;28;20104;-45
2022/07/26 06:37:17;;;;;;;5.30;1.75;;;22.00;59.50;;;;;;5015282;28;20068;-45
2022/07/26 06:39:45;;;;;;;5.50;2.20;;;22.10;59.50;;;;;;5022312;28;20045;-49
2022/07/26 06:42:11;;;;;;;4.13;1.92;;;22.10;59.50;;;;;;5010836;28;20096;-45
2022/07/26 06:44:38;;;;;;;7.25;2.35;;;22.20;59.60;;;;;;5009227;28;20116;-48
2022/07/26 06:47:05;;;;;;;4.63;2.10;;;22.20;59.50;;;;;;5011557;28;20195;-47
2022/07/26 06:49:32;;;;;;;6.55;2.35;;;22.30;59.50;;;;;;5023709;28;20057;-45
2022/07/26 06:51:59;;;;;;;6.32;2.75;;;22.30;59.40;;;;;;5013993;28;20045;-45
2022/07/26 06:54:25;;;;;;;4.47;2.20;;;22.30;59.60;;;;;;5010632;28;20050;-45
2022/07/26 06:56:52;;;;;;;11.38;4.40;;;22.40;59.60;;;;;;5016930;28;20042;-47
2022/07/26 06:59:19;;;;;;;7.88;3.20;;;22.40;59.30;;;;;;5006409;28;20060;-45
2022/07/26 07:01:46;;;;;;;5.55;2.95;;;22.40;59.30;;;;;;5010997;28;20065;-47
2022/07/26 07:04:27;;;;;;;7.80;2.97;;;22.40;59.30;;;;;;5007496;28;20122;-45
2022/07/26 07:06:54;;;;;;;9.18;3.05;;;22.40;60.00;;;;;;5029012;28;20048;-49
2022/07/26 07:09:23;;;;;;;6.22;2.92;;;22.40;59.40;;;;;;5023954;28;20112;-46
2022/07/26 07:11:51;;;;;;;7.43;3.53;;;22.40;59.40;;;;;;5031917;28;20087;-45
2022/07/26 07:14:24;;;;;;;6.32;3.38;;;22.40;59.50;;;;;;5016976;28;20681;-46
2022/07/26 07:16:51;;;;;;;10.10;3.42;;;22.40;59.70;;;;;;5025040;28;20045;-45
2022/07/26 07:19:17;;;;;;;7.57;3.78;;;22.50;59.60;;;;;;5020864;28;20545;-45
2022/07/26 07:21:44;;;;;;;7.63;4.03;;;22.40;59.60;;;;;;5050461;22;20119;-51
2022/07/26 07:24:11;;;;;;;7.45;3.50;;;22.50;59.60;;;;;;5024527;28;20041;-46
2022/07/26 07:26:38;;;;;;;6.43;3.40;;;22.50;59.60;;;;;;5031235;28;20041;-50
2022/07/26 07:29:04;;;;;;;8.80;3.95;;;22.50;59.80;;;;;;5012524;28;20041;-50
2022/07/26 07:31:31;;;;;;;9.90;5.65;;;22.50;59.80;;;;;;5022950;28;20037;-48
2022/07/26 07:34:21;;;;;;;11.80;5.55;;;22.50;59.70;;;;;;5027580;28;20045;-47
2022/07/26 07:36:50;;;;;;;8.73;4.70;;;22.60;59.60;;;;;;5030863;28;20075;-46
2022/07/26 07:39:18;;;;;;;9.18;4.32;;;22.60;59.70;;;;;;5030499;28;20041;-48
2022/07/26 07:41:46;;;;;;;7.97;4.95;;;22.70;59.80;;;;;;5027611;28;20045;-47
2022/07/26 07:44:13;;;;;;;8.80;4.38;;;22.60;59.60;;;;;;5030226;28;20092;-47
2022/07/26 07:46:39;;;;;;;7.78;4.38;;;22.60;59.60;;;;;;5030730;28;20045;-49
2022/07/26 07:49:06;;;;;;;6.25;3.75;;;22.70;59.60;;;;;;5030068;28;20111;-49
2022/07/26 07:51:40;;;;;;;5.15;4.40;;;22.80;59.40;;;;;;5012018;28;20544;-51
2022/07/26 07:54:07;;;;;;;8.57;4.10;;;22.80;59.20;;;;;;5029227;28;20055;-49
2022/07/26 07:56:34;;;;;;;5.60;2.85;;;22.90;59.40;;;;;;5030676;28;20564;-53
2022/07/26 07:59:00;;;;;;;8.30;2.90;;;23.00;58.70;;;;;;5027553;28;20563;-49
2022/07/26 08:01:27;;;;;;;6.57;2.85;;;23.00;58.70;;;;;;5020703;28;20072;-48
2022/07/26 08:04:07;;;;;;;6.53;3.03;;;23.10;58.50;;;;;;5030805;28;20041;-48
2022/07/26 08:06:34;;;;;;;4.88;2.67;;;23.30;58.40;;;;;;5030860;28;20044;-47
2022/07/26 08:09:02;;;;;;;4.80;2.70;;;23.30;57.70;;;;;;5023750;28;20046;-48
2022/07/26 08:11:31;;;;;;;6.75;2.55;;;23.40;57.70;;;;;;5029878;28;20042;-51
2022/07/26 08:14:00;;;;;;;7.82;2.95;;;23.50;57.60;;;;;;5029968;28;20050;-49
2022/07/26 08:16:26;;;;;;;4.18;2.25;;;23.60;57.80;;;;;;5030902;28;20065;-48
2022/07/26 08:18:53;;;;;;;7.25;3.10;;;23.70;57.10;;;;;;5024963;28;20041;-50
2022/07/26 08:21:34;;;;;;;6.70;2.50;;;23.70;56.70;;;;;;5023992;28;20095;-47
2022/07/26 08:24:01;;;;;;;8.73;2.25;;;23.80;56.30;;;;;;5012111;28;20395;-52
2022/07/26 08:26:28;;;;;;;5.47;2.60;;;23.80;56.40;;;;;;5042403;28;20065;-49
2022/07/26 08:28:55;;;;;;;6.22;2.80;;;23.90;56.20;;;;;;5043532;28;20045;-50
2022/07/26 08:31:27;;;;;;;9.57;3.25;;;23.90;56.30;;;;;;5023179;28;20657;-51
2022/07/26 08:33:57;;;;;;;7.13;3.63;;;23.90;56.40;;;;;;5024998;28;20042;-52
2022/07/26 08:36:24;;;;;;;9.32;3.38;;;24.00;57.10;;;;;;5030198;28;20042;-49
2022/07/26 08:38:59;;;;;;;5.55;2.72;;;24.10;56.80;;;;;;5027610;28;20585;-50
2022/07/26 08:41:26;;;;;;;6.43;2.67;;;24.20;56.70;;;;;;5029507;28;20049;-49
2022/07/26 08:43:54;;;;;;;5.57;2.88;;;24.40;56.50;;;;;;5029925;28;20037;-47
2022/07/26 08:46:23;;;;;;;7.60;2.83;;;24.40;56.10;;;;;;5028014;28;20087;-47
2022/07/26 08:48:54;;;;;;;8.80;2.30;;;24.50;56.00;;;;;;5027328;28;20102;-50
2022/07/26 08:51:25;;;;;;;6.32;3.35;;;24.70;55.80;;;;;;5022375;28;20072;-48
2022/07/26 08:53:57;;;;;;;4.30;3.08;;;24.70;55.40;;;;;;5030215;28;20045;-50
2022/07/26 08:56:36;;;;;;;7.50;2.70;;;24.70;55.10;;;;;;5023091;28;20035;-48
2022/07/26 08:59:05;;;;;;;7.47;2.92;;;24.70;55.00;;;;;;5027126;28;20618;-47
2022/07/26 09:01:32;;;;;;;8.05;2.95;;;24.70;55.40;;;;;;5029922;28;20029;-50
2022/07/26 09:04:17;;;;;;;8.30;3.05;;;24.70;56.40;;;;;;5029607;28;20565;-48
2022/07/26 09:07:10;;;;;;;6.85;2.83;;;24.60;56.40;;;;;;5023465;28;20042;-52
2022/07/26 09:09:59;;;;;;;7.32;2.95;;;24.50;56.30;;;;;;5028949;28;20053;-49
2022/07/26 09:12:27;;;;;;;11.20;3.22;;;24.40;56.50;;;;;;5029704;28;20133;-48
2022/07/26 09:14:55;;;;;;;6.75;3.28;;;24.30;56.90;;;;;;5027009;28;20103;-53
2022/07/26 09:17:23;;;;;;;4.55;3.67;;;24.30;57.00;;;;;;5021949;28;20041;-50
2022/07/26 09:20:26;;;;;;;5.00;3.38;;;24.20;57.60;;;;;;5029205;28;20060;-47
2022/07/26 09:23:02;;;;;;;4.07;3.38;;;24.20;58.00;;;;;;4968081;28;20455;-50
2022/07/26 09:25:35;;;;;;;5.50;2.97;;;24.10;58.10;;;;;;5020052;28;20037;-48
2022/07/26 09:28:03;;;;;;;6.03;3.08;;;24.20;58.70;;;;;;5026323;28;20034;-52
2022/07/26 09:30:31;;;;;;;7.70;3.53;;;24.20;58.50;;;;;;5029042;28;20041;-51
2022/07/26 09:32:59;;;;;;;6.78;3.58;;;24.20;58.50;;;;;;5028314;28;20046;-47
2022/07/26 09:35:28;;;;;;;5.18;3.33;;;24.20;58.50;;;;;;5019824;28;20626;-48
2022/07/26 09:38:15;;;;;;;4.63;4.13;;;24.20;59.30;;;;;;5028915;28;20099;-52
2022/07/26 09:40:44;;;;;;;5.03;3.13;;;24.20;58.50;;;;;;5029567;28;20041;-50
2022/07/26 09:43:17;;;;;;;8.20;4.10;;;24.30;58.90;;;;;;5022485;28;20045;-52
2022/07/26 09:46:03;;;;;;;5.78;4.18;;;24.30;58.40;;;;;;5028728;28;20038;-48
2022/07/26 09:48:30;;;;;;;8.63;3.90;;;24.40;59.60;;;;;;4992167;28;20037;-50
2022/07/26 09:51:38;;;;;;;6.95;4.47;;;24.50;59.40;;;;;;5021666;28;20119;-49
2022/07/26 09:54:05;;;;;;;5.05;3.65;;;24.60;59.70;;;;;;5020711;28;20568;-51
2022/07/26 09:56:45;;;;;;;6.60;3.88;;;24.70;58.80;;;;;;5027860;28;20045;-51
2022/07/26 09:59:14;;;;;;;7.75;4.30;;;24.80;59.30;;;;;;5028021;28;20044;-52
2022/07/26 10:01:42;;;;;;;6.18;3.92;;;24.90;59.40;;;;;;5025616;28;20045;-51
2022/07/26 10:04:09;;;;;;;4.72;3.30;;;25.00;58.70;;;;;;5026853;28;20498;-50
2022/07/26 10:06:37;;;;;;;5.25;3.50;;;25.10;58.50;;;;;;5028646;28;20056;-50
2022/07/26 10:09:05;;;;;;;4.32;3.83;;;25.30;58.00;;;;;;5028880;28;20034;-50
2022/07/26 10:12:03;;;;;;;5.40;3.70;;;25.40;57.80;;;;;;5022630;28;20139;-48
2022/07/26 10:14:45;;;;;;;7.10;4.13;;;25.60;57.20;;;;;;5022105;28;20456;-49
2022/07/26 10:17:27;;;;;;;4.68;3.47;;;25.70;56.30;;;;;;5027945;28;20045;-48
2022/07/26 10:20:03;;;;;;;6.13;3.88;;;25.80;56.10;;;;;;5028370;28;20073;-52
2022/07/26 10:22:45;;;;;;;4.47;3.95;;;25.80;55.30;;;;;;5022457;28;20041;-49
2022/07/26 10:25:18;;;;;;;4.97;4.00;;;25.80;55.10;;;;;;5016372;28;20042;-49
2022/07/26 10:27:56;;;;;;;7.03;4.85;;;25.90;55.10;;;;;;5052582;28;20048;-51
2022/07/26 10:30:26;;;;;;;8.13;6.15;;;25.90;55.30;;;;;;5044540;28;20052;-48
2022/07/26 10:33:14;;;;;;;6.18;4.07;;;25.90;54.70;;;;;;5027236;28;20064;-51
2022/07/26 10:35:42;;;;;;;3.78;3.45;;;26.00;53.60;;;;;;5031795;28;20033;-51
2022/07/26 10:38:25;;;;;;;2.88;2.33;;;26.00;53.80;;;;;;5032659;28;20383;-50
2022/07/26 10:41:03;;;;;;;1.40;1.08;;;26.10;52.10;;;;;;5026610;28;20045;-50
2022/07/26 10:43:30;;;;;;;1.63;0.73;;;26.10;50.40;;;;;;5025198;28;20041;-50
2022/07/26 10:46:16;;;;;;;1.15;0.70;;;26.10;51.20;;;;;;5031573;28;20041;-49
2022/07/26 10:49:05;;;;;;;0.68;0.50;;;26.10;50.10;;;;;;5025109;28;20041;-50
2022/07/26 10:51:37;;;;;;;1.15;0.60;;;26.00;49.90;;;;;;5031116;28;20060;-52
2022/07/26 10:54:05;;;;;;;;;;;25.90;50.10;;;;;;5017519;28;20091;-47
2022/07/26 10:56:32;;;;;;;2.58;0.98;;;25.80;50.70;;;;;;5030984;28;19925;-48
2022/07/26 10:59:01;;;;;;;2.85;1.10;;;25.70;50.10;;;;;;5031770;28;20045;-47
2022/07/26 11:01:39;;;;;;;1.45;1.30;;;25.60;49.90;;;;;;5028834;28;20049;-48
2022/07/26 11:04:18;;;;;;;1.52;0.80;;;25.40;50.20;;;;;;5031067;28;20126;-50
2022/07/26 11:06:45;;;;;;;1.60;1.20;;;25.30;51.20;;;;;;5031380;28;20046;-52
2022/07/26 11:09:12;;;;;;;1.02;0.95;;;25.10;51.80;;;;;;5029389;28;20033;-49
2022/07/26 11:11:41;;;;;;;1.33;1.10;;;25.00;52.10;;;;;;5032170;28;20045;-49
2022/07/26 11:14:15;;;;;;;2.13;0.90;;;24.90;52.60;;;;;;5033164;28;20484;-50
2022/07/26 11:16:45;;;;;;;1.17;0.68;;;24.80;52.50;;;;;;5032601;28;20049;-50
2022/07/26 11:19:19;;;;;;;4.50;1.13;;;24.70;52.90;;;;;;5029547;28;20111;-47
2022/07/26 11:21:53;;;;;;;1.45;0.98;;;24.70;52.90;;;;;;5028660;28;20060;-49
2022/07/26 11:24:20;;;;;;;1.50;0.60;;;24.70;53.30;;;;;;5013625;28;20077;-50
2022/07/26 11:26:52;;;;;;;2.15;0.88;;;24.70;53.50;;;;;;5033547;28;20096;-51
2022/07/26 11:29:27;;;;;;;1.95;0.90;;;24.70;53.00;;;;;;5026986;28;20068;-49
2022/07/26 11:32:20;;;;;;;1.38;1.17;;;24.70;52.60;;;;;;5032794;28;20061;-53
2022/07/26 11:34:58;;;;;;;1.27;1.07;;;24.80;52.50;;;;;;5031462;28;20054;-50
2022/07/26 11:37:26;;;;;;;2.17;1.00;;;24.90;52.50;;;;;;5027745;28;20089;-51
2022/07/26 11:39:53;;;;;;;1.23;1.00;;;24.90;52.40;;;;;;5032329;28;20052;-51
2022/07/26 11:42:20;;;;;;;1.10;1.00;;;25.00;52.50;;;;;;5032753;28;20045;-51
2022/07/26 11:44:48;;;;;;;2.38;0.95;;;25.10;52.10;;;;;;5031748;28;20033;-50
2022/07/26 11:47:18;;;;;;;3.28;1.00;;;25.30;52.10;;;;;;5024667;28;20037;-52
2022/07/26 11:49:46;;;;;;;2.67;1.08;;;25.50;51.50;;;;;;5015028;28;20049;-51
2022/07/26 11:52:33;;;;;;;1.25;1.15;;;25.70;50.90;;;;;;4998369;28;20120;-48
2022/07/26 11:55:00;;;;;;;1.20;1.10;;;25.90;50.60;;;;;;5016031;28;20044;-51
2022/07/26 11:57:29;;;;;;;1.48;1.10;;;26.10;49.40;;;;;;5032477;28;20120;-50
2022/07/26 11:59:58;;;;;;;1.60;1.27;;;26.30;49.10;;;;;;5032750;28;20034;-48
2022/07/26 12:02:26;;;;;;;1.08;0.95;;;26.40;48.70;;;;;;5031799;28;20068;-50
2022/07/26 12:05:18;;;;;;;1.58;0.98;;;26.40;48.50;;;;;;5023196;28;20030;-51
2022/07/26 12:07:56;;;;;;;;;;;26.50;48.00;;;;;;5029426;28;20072;-48
2022/07/26 12:10:23;;;;;;;1.63;0.90;;;26.50;47.40;;;;;;5012743;28;19921;-50
2022/07/26 12:13:06;;;;;;;0.80;0.70;;;26.50;48.30;;;;;;5014425;28;20033;-46
2022/07/26 12:15:50;;;;;;;1.48;1.27;;;26.50;48.40;;;;;;5030783;28;20395;-49
2022/07/26 12:18:28;;;;;;;2.13;1.15;;;26.50;47.30;;;;;;5024222;28;20067;-53
2022/07/26 12:20:59;;;;;;;3.00;1.38;;;26.60;47.40;;;;;;5009107;28;20129;-51
2022/07/26 12:23:47;;;;;;;2.00;0.90;;;26.70;47.10;;;;;;5023005;28;20055;-48
2022/07/26 12:26:18;;;;;;;0.70;0.68;;;26.70;46.90;;;;;;5022016;28;20474;-49
2022/07/26 12:28:45;;;;;;;1.05;0.60;;;26.70;47.00;;;;;;5031926;28;20099;-52
2022/07/26 12:31:26;;;;;;;0.70;0.70;;;26.50;47.10;;;;;;5031360;28;20417;-51
2022/07/26 12:33:54;;;;;;;0.63;0.63;;;26.50;46.40;;;;;;5026829;28;20045;-50
2022/07/26 12:36:22;;;;;;;2.80;1.08;;;26.30;46.90;;;;;;5030090;28;20560;-48
2022/07/26 12:38:58;;;;;;;1.33;0.85;;;26.20;47.20;;;;;;5015667;28;20037;-51
2022/07/26 12:41:37;;;;;;;1.88;1.20;;;26.10;47.60;;;;;;5024991;28;20037;-48
2022/07/26 12:44:05;;;;;;;4.63;1.65;;;26.00;47.00;;;;;;5029323;28;20100;-47
2022/07/26 12:46:34;;;;;;;1.02;1.00;;;26.00;47.60;;;;;;5030533;28;20038;-47
2022/07/26 12:49:01;;;;;;;1.40;1.30;;;26.10;48.20;;;;;;5031731;28;20069;-51
2022/07/26 12:51:28;;;;;;;2.10;1.08;;;26.20;48.20;;;;;;5025001;28;20038;-48
2022/07/26 12:53:55;;;;;;;1.58;1.20;;;26.30;48.30;;;;;;5012508;28;20049;-49
2022/07/26 12:56:21;;;;;;;2.13;1.75;;;26.50;48.20;;;;;;5029997;28;20042;-52
2022/07/26 12:58:48;;;;;;;1.52;1.40;;;26.70;48.10;;;;;;5029999;28;20099;-47
2022/07/26 13:01:15;;;;;;;1.60;1.50;;;26.80;47.90;;;;;;5021509;28;20095;-48
2022/07/26 13:03:42;;;;;;;2.42;1.67;;;26.90;47.80;;;;;;5019248;28;20029;-48